createdAt,value
2022-07-31T00:05:42.594Z,98900.06
2022-07-31T00:15:48.678Z,98890.31
2022-07-31T00:25:54.474Z,98885.68
2022-07-31T00:36:00.300Z,98891.50
2022-07-31T00:46:07.034Z,98888.52
2022-07-31T00:56:20.448Z,98889.23
2022-07-31T01:06:26.405Z,98895.64
2022-07-31T01:16:37.313Z,98877.48
2022-07-31T01:26:50.550Z,98865.61
2022-07-31T01:37:02.594Z,98866.06
2022-07-31T01:47:10.489Z,98860.77
2022-07-31T01:57:18.939Z,98852.23
2022-07-31T02:07:26.226Z,98844.02
2022-07-31T02:17:32.486Z,98834.16
2022-07-31T02:27:53.607Z,98835.37
2022-07-31T02:38:06.043Z,98817.42
2022-07-31T02:48:28.726Z,98824.81
2022-07-31T02:58:34.966Z,98818.77
2022-07-31T03:08:40.660Z,98821.14
2022-07-31T03:18:47.219Z,98822.23
2022-07-31T03:28:52.940Z,98813.45
2022-07-31T03:38:58.855Z,98807.91
2022-07-31T03:49:05.530Z,98807.33
2022-07-31T03:59:12.023Z,98807.70
2022-07-31T04:09:20.302Z,98814.91
2022-07-31T04:19:26.152Z,98816.77
2022-07-31T04:29:31.979Z,98811.38
2022-07-31T04:39:38.540Z,98811.30
2022-07-31T04:49:44.315Z,98810.32
2022-07-31T04:59:57.967Z,98815.05
2022-07-31T05:10:06.794Z,98814.66
2022-07-31T05:20:14.043Z,98812.42
2022-07-31T05:30:29.906Z,98814.02
2022-07-31T05:40:36.597Z,98819.20
2022-07-31T05:50:44.589Z,98823.88
2022-07-31T06:00:51.491Z,98824.30
2022-07-31T06:10:57.367Z,98827.23
2022-07-31T06:21:02.986Z,98839.66
2022-07-31T06:31:08.809Z,98841.30
2022-07-31T06:41:35.536Z,98843.80
2022-07-31T06:51:42.648Z,98849.30
2022-07-31T07:01:48.603Z,98849.59
2022-07-31T07:11:54.985Z,98848.48
2022-07-31T07:22:01.027Z,98849.70
2022-07-31T07:32:07.705Z,98856.36
2022-07-31T07:42:13.438Z,98860.53
2022-07-31T07:52:19.581Z,98860.37
2022-07-31T08:02:25.389Z,98862.58
2022-07-31T08:12:31.124Z,98864.65
2022-07-31T08:22:36.835Z,98872.80
2022-07-31T08:32:42.631Z,98883.14
2022-07-31T08:42:49.265Z,98880.82
2022-07-31T08:52:56.023Z,98894.43
2022-07-31T09:03:01.998Z,98892.03
2022-07-31T09:13:16.632Z,98891.70
2022-07-31T09:23:22.634Z,98892.24
2022-07-31T09:33:30.878Z,98897.88
2022-07-31T09:43:36.858Z,98905.52
2022-07-31T09:53:59.752Z,98914.76
2022-07-31T10:04:07.257Z,98914.52
2022-07-31T10:14:18.213Z,98914.37
2022-07-31T10:24:28.634Z,98920.59
2022-07-31T10:34:35.699Z,98912.20
2022-07-31T10:44:51.696Z,98920.36
2022-07-31T10:54:58.409Z,98926.17
2022-07-31T11:05:15.632Z,98936.37
2022-07-31T11:15:24.279Z,98943.58
2022-07-31T11:25:31.775Z,98952.29
2022-07-31T11:35:38.435Z,98959.48
2022-07-31T11:45:52.679Z,98958.30
2022-07-31T11:56:00.827Z,98965.88
2022-07-31T12:06:08.375Z,98963.05
2022-07-31T12:16:16.049Z,98961.14
2022-07-31T12:26:29.863Z,98971.42
2022-07-31T12:36:35.644Z,98976.37
2022-07-31T12:46:41.567Z,98977.63
2022-07-31T12:56:48.406Z,98979.23
2022-07-31T13:06:54.468Z,98988.10
2022-07-31T13:17:00.279Z,98992.48
2022-07-31T13:27:06.314Z,98997.19
2022-07-31T13:37:12.422Z,98999.55
2022-07-31T13:47:18.338Z,99009.10
2022-07-31T13:57:24.241Z,99017.70
2022-07-31T14:07:47.991Z,99011.95
2022-07-31T14:17:58.512Z,99018.07
2022-07-31T14:28:04.260Z,99024.21
2022-07-31T14:38:10.281Z,99022.18
2022-07-31T14:48:16.349Z,99023.95
2022-07-31T14:58:22.692Z,99034.39
2022-07-31T15:08:28.623Z,99047.95
2022-07-31T15:18:34.388Z,99057.41
2022-07-31T15:28:40.202Z,99062.09
2022-07-31T15:38:46.155Z,99064.28
2022-07-31T15:48:52.383Z,99075.20
2022-07-31T15:59:00.239Z,99076.98
2022-07-31T16:09:06.049Z,99075.91
2022-07-31T16:19:11.753Z,99084.63
2022-07-31T16:29:59.571Z,99092.26
2022-07-31T16:39:48.496Z,99093.04
2022-07-31T16:49:54.374Z,99096.08
2022-07-31T17:00:00.322Z,99102.14
2022-07-31T17:10:07.369Z,99110.30
2022-07-31T17:20:14.956Z,99119.09
2022-07-31T17:30:20.849Z,99119.34
2022-07-31T17:40:42.410Z,99118.36
2022-07-31T17:50:53.825Z,99117.75
2022-07-31T18:01:00.092Z,99126.80
2022-07-31T18:11:06.595Z,99141.36
2022-07-31T18:21:13.516Z,99148.88
2022-07-31T18:31:32.311Z,99152.42
2022-07-31T18:41:46.816Z,99165.42
2022-07-31T18:51:54.255Z,99177.13
2022-07-31T19:02:00.786Z,99189.52
2022-07-31T19:12:08.794Z,99195.78
2022-07-31T19:22:14.874Z,99199.59
2022-07-31T19:32:20.928Z,99205.72
2022-07-31T19:42:26.811Z,99209.39
2022-07-31T19:52:32.741Z,99206.95
2022-07-31T20:02:38.480Z,99214.77
2022-07-31T20:12:46.014Z,99208.89
2022-07-31T20:22:51.834Z,99206.67
2022-07-31T20:32:57.565Z,99208.71
2022-07-31T20:43:04.700Z,99205.73
2022-07-31T20:53:10.563Z,99197.04
2022-07-31T21:03:16.894Z,99193.41
2022-07-31T21:13:22.737Z,99191.86
2022-07-31T21:23:29.145Z,99194.20
2022-07-31T21:33:36.089Z,99189.73
2022-07-31T21:43:58.894Z,99191.41
2022-07-31T21:54:05.980Z,99190.75
2022-07-31T22:04:11.895Z,99198.58
2022-07-31T22:14:17.676Z,99191.99
2022-07-31T22:24:24.055Z,99190.73
2022-07-31T22:34:37.801Z,99187.98
2022-07-31T22:44:44.328Z,99191.36
2022-07-31T22:54:50.702Z,99196.52
2022-07-31T23:04:56.523Z,99192.80
2022-07-31T23:15:02.350Z,99188.48
2022-07-31T23:25:09.891Z,99201.48
2022-07-31T23:35:15.779Z,99204.83
2022-07-31T23:45:21.642Z,99199.48
2022-07-31T23:55:27.663Z,99203.27
